ěÝzenÝ letovÚho provozu ╚eskÚ republiky
OPMET data - Ceska Republika Aktualizace: 21.10.2021 10:26:28  UTC
SIGMET / AIRMET
LKAA SIGMET U04 VALID 210900/211030 LKPW- LKAA PRAHA FIR SEV TURB FCST WI N4844 E01337 - N4902 E01433 - N4954 E01520 - N4921 E01652 - N4821 E01416 - N4844 E01337 SFC/FL100 MOV ENE INTSF=
LKAA SIGMET U05 VALID 210915/211100 LKPW- LKAA PRAHA FIR SEV TURB FCST W OF LINE N5044 E01614 - N4842 E01550 SFC/8000FT MOV E NC=
LKAA SIGMET U06 VALID 210915/211030 LKPW- LKAA PRAHA FIR CNL SIGMET U04 210900/211030=
Warning / Vystraha
LKPR AD WRNG 1 VALID 210715/211100 SFC WSPD MAX 45KT FCST NC=
LKPR AD WRNG 2 VALID 210750/211105 SFC WIND 230/30KT MAX 45KT FCST INTSF=
LKPR AD WRNG 4 VALID 210935/211200 SFC WIND 250/35KT MAX 55KT FCST NC=
LKKB AD WRNG 1 VALID 210820/211220 SFC WSPD MAX OVR 40KT INTSF=
LKCV AD WRNG 1 VALID 211010/211300 SFC WSPD MAX 40 KT=
AIREP - NIL
REG QNH
REGIONAL QNH FORECAST ISSUED 2021-10-21 08:43 AREA VALID FM/TL QNH/HPA/ : LKAA 210900/211200 0997 =
 
METAR / SPECI
METAR LKBC 211030Z AUTO 24025G38KT 210V270 9999 FEW060 SCT100 16/04 Q1006=
SPECI LKCV 211007Z 24028G38KT 9999 FEW035 SCT060 BKN220 19/06 Q1002 RMK BLU=
METAR LKKB 211000Z 23027G40KT CAVOK 17/04 Q1001 NOSIG RMK BLU BLU=
METAR LKKU 211000Z 21005KT 9999 -RA FEW031 16/09 Q1006=
METAR LKKV 211000Z 23015G28KT 190V260 9999 -SHRA BKN023 10/06 Q1001 RMK REG QNH 0997=
METAR LKLN 211030Z AUTO 24020G36KT 220V280 9999 BKN048 15/05 Q1005=
METAR LKMT 211000Z 21023KT 9999 SCT030 15/09 Q1005 NOSIG RMK REG QNH 0997=
METAR LKNA 211000Z 16006KT CAVOK 11/09 Q1006 NOSIG RMK BLU BLU=
METAR LKPD 211030Z 25024G33KT 9999 SCT047 BKN220 18/06 Q1002 NOSIG RMK BLU BLU=
METAR LKPJ 211000Z AUTO 17011KT 9999 OVC074/// 13/09 Q1006=
METAR LKPR 211000Z 23037G51KT CAVOK 16/06 Q1001 NOSIG RMK REG QNH 0997=
METAR LKTB 211000Z 18005KT 140V200 CAVOK 12/08 Q1006 NOSIG RMK REG QNH 0997=
METAR LKVO NIL
TAF
TAF LKBC NIL
TAF AMD LKCV 210500Z 2109/2206 23020G30KT CAVOK      TEMPO 2110/2115 24028G40KT      BECMG 2115/2118 24015G25KT      TEMPO 2121/2200 24020G30KT 8000 RA BKN030=
TAF LKKB 210500Z 2106/2206 22014KT 9999 SCT040      TEMPO 2106/2200 25020G45KT 6000 SHRA BKN015 BKN028      BECMG 2114/2116 24010KT CAVOK=
TAF LKKU NIL
TAF LKKV 210500Z 2106/2212 24014KT 9999 BKN020      TEMPO 2106/2122 24017G36KT 7000 SHRA BKN007      PROB30 TEMPO 2107/2114 25020G46KT      BECMG 2122/2200 25010KT=
TAF LKLN NIL
TAF LKMT 210500Z 2106/2212 22014KT CAVOK      TEMPO 2108/2212 23017G30KT      PROB30 TEMPO 2109/2117 24020G40KT 9999 -SHRA BKN035      TEMPO 2201/2204 9999 BKN035=
TAF AMD LKNA 210500Z 2106/2206 20010KT 9999 SCT040      TEMPO 2106/2109 3000 NSC      PROB30 TEMPO 2107/2109 7000 RA BKN020      BECMG 2112/2114 27020G45KT      BECMG 2115/2117 CAVOK=
TAF LKPD 210500Z 2106/2206 21010KT CAVOK      BECMG 2108/2111 26015G26KT      TEMPO 2106/2110 8000 RA BKN025      TEMPO 2108/2120 27022G40KT      BECMG 2120/2123 21012KT=
TAF LKPJ NIL
TAF LKPR 210500Z 2106/2212 21016KT CAVOK      TEMPO 2106/2109 7000 SHRA BKN025      TEMPO 2106/2122 25022G38KT      PROB40 TEMPO 2109/2115 25030G54KT      TEMPO 2120/2200 7000 SHRA BKN025      TEMPO 2210/2212 24018G34KT=
TAF LKTB 210500Z 2106/2212 13008KT CAVOK      PROB30 TEMPO 2110/2115 8000 SHRA BKN035      BECMG 2109/2111 25014KT      TEMPO 2111/2118 26016G38KT      BECMG 2118/2120 24007KT      TEMPO 2200/2204 9999 BKN025      BECMG 2209/2211 25014KT=
TAF LKVO NIL